Domov               UVHVVR             MKGP            O straneh              
ZDRAVSTVENO VARSTVO RASTLIN
  MREŽA AGROMET. POSTAJ
 ► PROGNOSTIČNA OBVESTILA
AGROMETEOROLOŠKI PODATKI -
ARSO
OBVLADOVANJE TVEGANJ ZARADI
NEUGODNIH VREMENSKIH RAZMER
  ► NARAVNE NESREČE
  ► SUŠA/MOČA
  ► NAMAKANJE
  ► ŽLED (gozdarstvo)
KARTOGRAFSKI PRIKAZI
SPLETNE POVEZAVE
PROJEKTI IN PUBLIKACIJE

AGROMETEOROLOŠKA MREŽA: VREMENSKE POSTAJE IN FENOLOŠKA OPAZOVANJA

Pregled podatkov za lokacijo Drašiči, meteorološka postaja 38741

Pregled senzorjev na lokaciji

ID Ime Zadnja
vrednost
Datum
zadnje
spremembe
Tip
senzorja
1867 Omočenost lista (U) 0 U 23.3.2019 11:00 A730WET
1868 Padavine (mm) 0 mm 23.3.2019 11:00 Rain-O-Matic
1866 Relativna vlaga 2 m (% RH) 43,83 % RH 23.3.2019 11:00 50YA
1865 Temperatura 2 m (°C) 12,97 °C 23.3.2019 11:00 50YA

Pregled podatkov zadnjih 24 ur

Zap.
št.
Datum in čas Drašiči
Omočenost
lista
Padavine Relativna
vlaga
2
m
Temperatura
2
m
1 23.3.2019 11:00
2 23.3.2019 10:30
3 23.3.2019 10:00 0 0 43,8 13
4 23.3.2019 09:30 0 0 48,5 10,6
5 23.3.2019 09:00 0 0 55,8 8,4
6 23.3.2019 08:30 0 0 64,3 7,1
7 23.3.2019 08:00 0 0 61 7,4
8 23.3.2019 07:30 0 0 62,1 5,7
9 23.3.2019 07:00 0 0 67,2 4,1
10 23.3.2019 06:30 0 0 75,7 1,7
11 23.3.2019 06:00 0 0 68,6 3,1
12 23.3.2019 05:30 0 0 67,9 3
13 23.3.2019 05:00 0 0 65,9 3,5
14 23.3.2019 04:30 0 0 62,6 4,1
15 23.3.2019 04:00 0 0 64 3,8
16 23.3.2019 03:30 0 0 61,4 4,4
17 23.3.2019 03:00 0 0 62,1 4,2
18 23.3.2019 02:30 0 0 60,2 4,6
19 23.3.2019 02:00 0 0 58,9 5,1
20 23.3.2019 01:30 0 0 57,3 5,6
21 23.3.2019 01:00 0 0 53,5 5,8
22 23.3.2019 00:30 0 0 55,5 5,7
23 23.3.2019 00:00 0 0 55,8 5,8
24 22.3.2019 23:30 0 0 51,6 6,5
25 22.3.2019 23:00 0 0 48,1 7,4
26 22.3.2019 22:30 0 0 46,5 8
27 22.3.2019 22:00 0 0 46,8 8,1
28 22.3.2019 21:30 0 0 44,9 8,4
29 22.3.2019 21:00 0 0 42,5 8,9
30 22.3.2019 20:30 0 0 41,5 9
31 22.3.2019 20:00 0 0 36,3 10,2
32 22.3.2019 19:30 0 0 33,9 10,7
33 22.3.2019 19:00 0 0 29,1 12,2
34 22.3.2019 18:30 0 0 25 13,5
35 22.3.2019 18:00 0 0 24,2 14,6
36 22.3.2019 17:30 0 0 25,1 15,4
37 22.3.2019 17:00 0 0 26,1 15,7
38 22.3.2019 16:30 0 0 26,6 16,3
39 22.3.2019 16:00 0 0 26,6 16,6
40 22.3.2019 15:30 0 0 27,3 16,4
41 22.3.2019 15:00 0 0 27,9 16,4
42 22.3.2019 14:30 0 0 27,5 16,5
43 22.3.2019 14:00 0 0 27,3 16,4
44 22.3.2019 13:30 0 0 27 16
45 22.3.2019 13:00 0 0 28,8 15,5
46 22.3.2019 12:30 0 0 29,1 15,1
47 22.3.2019 12:00 0 0 29,5 14,7
48 22.3.2019 11:30 0 0 29,8 13,9
© 2011 Ministrstvo za kmetijstvo, gozdarstvo in prehrano. Vse pravice pridržane.